Terminal Aerodrome Forecast
Issued by NWS

Home | Current Version | Previous Version | Text Only | Print | Product List | Glossary On
Versions: 1 2 3 4 5 6 7 8 9 10 11 12 13
000
FTUS43 KDMX 251728
TAFOTM
TAF
KOTM 251728Z 2518/2618 15010KT P6SM SCT050
     FM261700 19007KT P6SM BKN210=

USA.gov is the U.S. government's official web portal to all federal, state and local government web resources and services.